Ertholm — OVJX — position and weather

sailwx.info

Track history (hours):
 
Tides and Currents Weather Stations Pressure Air Temp Water Temp Dewpoint Dewpoint Depression Visibility Wind Speed Wind Dir Waves Ship Positions

Ertholm

Last reported at 2014-Aug-01 07:28 UTC. Time now 2014-Aug-01 07:48 UTC.
Position N 55°13' E 014°58'.

Length 38 m; draft 2.3 m.

Type: Ship. MMSI: 219000751.

Date/timePositionNaut miles runAvg speedWind from/ knotsBaromVisibWave heightAir tempDewpointWater temp
2014-Aug-01 07:28N 55°13' E 014°58'0 0.0
2014-Aug-01 06:33N 55°13' E 014°58'0 0.0
2014-Aug-01 05:33N 55°13' E 014°58'0 0.0
2014-Aug-01 04:32N 55°13' E 014°58'0 0.0
2014-Aug-01 03:33N 55°13' E 014°58'0 0.0
2014-Aug-01 02:33N 55°13' E 014°58'0 0.0
2014-Aug-01 01:33N 55°13' E 014°58'0 0.0
2014-Aug-01 00:33N 55°13' E 014°58'0 0.0
2014-Jul-31 23:33N 55°13' E 014°58'0 0.0
2014-Jul-31 22:33N 55°13' E 014°58'0 0.0
2014-Jul-31 21:33N 55°13' E 014°58'0 0.0
2014-Jul-31 20:33N 55°13' E 014°58'0 0.0
2014-Jul-31 19:33N 55°13' E 014°58'0 0.0
2014-Jul-31 18:33N 55°13' E 014°58'10 9.9
2014-Jul-31 17:33N 55°19' E 015°11'4 4.5
2014-Jul-31 16:33N 55°16' E 015°05'5 5.3
2014-Jul-31 15:33N 55°13' E 014°58'7 7.2
2014-Jul-31 14:33N 55°18' E 015°08'3 2.7
2014-Jul-31 13:33N 55°16' E 015°04'0 0.4
2014-Jul-31 12:33N 55°16' E 015°04'6 5.6
2014-Jul-31 11:33N 55°19' E 015°11'10 9.7
2014-Jul-31 10:33N 55°13' E 014°58'7 7.3
2014-Jul-31 09:33N 55°18' E 015°08'2 1.6
2014-Jul-31 08:33N 55°17' E 015°06'6 5.9
2014-Jul-31 07:33N 55°13' E 014°58'0 0.0
2014-Jul-31 06:33N 55°13' E 014°58'0 0.0
2014-Jul-31 05:33N 55°13' E 014°58'0 0.0
2014-Jul-31 04:33N 55°13' E 014°58'0 0.0
2014-Jul-31 03:33N 55°13' E 014°58'0 0.0
2014-Jul-31 02:33N 55°13' E 014°58'0 0.0
2014-Jul-31 01:33N 55°13' E 014°58'0 0.0
2014-Jul-31 00:33N 55°13' E 014°58'0 0.0
2014-Jul-30 23:33N 55°13' E 014°58'0 0.0
2014-Jul-30 22:33N 55°13' E 014°58'0 0.0
2014-Jul-30 21:33N 55°13' E 014°58'0 0.0
2014-Jul-30 20:33N 55°13' E 014°58'0 0.0
2014-Jul-30 19:33N 55°13' E 014°58'0 0.0
2014-Jul-30 18:33N 55°13' E 014°58'10 9.9
2014-Jul-30 17:34N 55°19' E 015°11'5 5.1
2014-Jul-30 16:33N 55°16' E 015°05'5 4.7
2014-Jul-30 15:33N 55°13' E 014°58'8 7.2
2014-Jul-30 14:28N 55°18' E 015°09'2 2.0
2014-Jul-30 13:33N 55°17' E 015°06'2 1.9
2014-Jul-30 12:33N 55°16' E 015°03'6 5.8
2014-Jul-30 11:33N 55°19' E 015°11'9 9.4
2014-Jul-30 10:33N 55°13' E 014°59'6 5.9
2014-Jul-30 09:33N 55°17' E 015°06'1 0.6
2014-Jul-30 08:33N 55°17' E 015°05'6 5.8
2014-Jul-30 07:33N 55°13' E 014°58'0 0.0
2014-Jul-30 06:33N 55°13' E 014°58'0 0.0
2014-Jul-30 05:33N 55°13' E 014°58'0 0.0
2014-Jul-30 04:33N 55°13' E 014°58'0 0.0
2014-Jul-30 03:33N 55°13' E 014°58'0 0.0
2014-Jul-30 02:33N 55°13' E 014°58'0 0.0
2014-Jul-30 01:33N 55°13' E 014°58'0 0.0
2014-Jul-30 00:08N 55°13' E 014°58'0 0.0
2014-Jul-29 23:33N 55°13' E 014°58'0 0.0
2014-Jul-29 22:33N 55°13' E 014°58'0 0.0
2014-Jul-29 21:33N 55°13' E 014°58'0 0.0
2014-Jul-29 20:33N 55°13' E 014°58'0 0.0
2014-Jul-29 19:33N 55°13' E 014°58'0 0.0
2014-Jul-29 18:33N 55°13' E 014°58'10 9.9
2014-Jul-29 17:33N 55°19' E 015°11'5 5.5
2014-Jul-29 16:33N 55°16' E 015°04'4 4.4
2014-Jul-29 15:33N 55°13' E 014°58'7 7.3
2014-Jul-29 14:33N 55°18' E 015°08'3 2.5
2014-Jul-29 13:33N 55°16' E 015°04'1 1.0
2014-Jul-29 12:33N 55°16' E 015°03'6 6.0
2014-Jul-29 11:33N 55°19' E 015°11'9 9.3
2014-Jul-29 10:33N 55°13' E 014°59'6 6.0
2014-Jul-29 09:33N 55°17' E 015°07'1 0.6
2014-Jul-29 08:33N 55°17' E 015°06'6 5.8
2014-Jul-29 07:33N 55°13' E 014°58'0 0.0
2014-Jul-29 06:33N 55°13' E 014°58'0 0.0
2014-Jul-29 05:33N 55°13' E 014°58'0 0.0
2014-Jul-29 04:33N 55°13' E 014°58'0 0.0
2014-Jul-29 03:33N 55°13' E 014°58'0 0.0
2014-Jul-29 02:33N 55°13' E 014°58'0 0.0
2014-Jul-29 01:33N 55°13' E 014°58'0 0.0
2014-Jul-29 00:33N 55°13' E 014°58'0 0.0
2014-Jul-28 23:33N 55°13' E 014°58'0 0.0
2014-Jul-28 22:33N 55°13' E 014°58'0 0.0
2014-Jul-28 21:33N 55°13' E 014°58'0 0.0
2014-Jul-28 20:33N 55°13' E 014°58'0 0.0
2014-Jul-28 19:33N 55°13' E 014°58'0 0.0
2014-Jul-28 18:33N 55°13' E 014°58'0 0.0
2014-Jul-28 17:33N 55°13' E 014°58'0 0.0
2014-Jul-28 16:33N 55°13' E 014°58'0 0.0
2014-Jul-28 15:33N 55°13' E 014°58'7 7.4
2014-Jul-28 14:33N 55°18' E 015°08'3 2.8
2014-Jul-28 13:33N 55°16' E 015°04'1 0.8
2014-Jul-28 12:33N 55°15' E 015°03'6 5.9
2014-Jul-28 11:33N 55°19' E 015°11'10 9.6
2014-Jul-28 10:34N 55°13' E 014°59'7 6.8
2014-Jul-28 09:33N 55°18' E 015°07'1 1.3
2014-Jul-28 08:33N 55°17' E 015°06'6 5.8
2014-Jul-28 07:33N 55°13' E 014°58'0 0.0
2014-Jul-28 06:33N 55°13' E 014°58'0 0.0
2014-Jul-28 05:33N 55°13' E 014°58'0 0.0
2014-Jul-28 04:33N 55°13' E 014°58'0 0.0
2014-Jul-28 03:33N 55°13' E 014°58'0 0.0
2014-Jul-28 02:15N 55°13' E 014°58'0 0.0
2014-Jul-28 01:33N 55°13' E 014°58'0 0.0
2014-Jul-28 00:33N 55°13' E 014°58'0 0.0
2014-Jul-27 23:33N 55°13' E 014°58'0 0.0
2014-Jul-27 22:33N 55°13' E 014°58'0 0.0
2014-Jul-27 21:33N 55°13' E 014°58'0 0.0
2014-Jul-27 20:33N 55°13' E 014°58'0 0.0
2014-Jul-27 19:33N 55°13' E 014°58'0 0.0
2014-Jul-27 18:33N 55°13' E 014°58'0 0.0
2014-Jul-27 17:32N 55°13' E 014°58'0 0.0
2014-Jul-27 16:33N 55°13' E 014°58'0 0.0
2014-Jul-27 15:33N 55°13' E 014°58'7 6.8
2014-Jul-27 14:33N 55°17' E 015°07'2 2.4
2014-Jul-27 13:33N 55°16' E 015°04'1 0.6
2014-Jul-27 12:33N 55°15' E 015°03'6 6.2
2014-Jul-27 11:33N 55°19' E 015°11'10 9.7
2014-Jul-27 10:33N 55°13' E 014°58'8 7.4
2014-Jul-27 09:31N 55°18' E 015°08'2 2.1
2014-Jul-27 08:33N 55°17' E 015°05'6 5.6
2014-Jul-27 07:33N 55°13' E 014°58'0 0.0
2014-Jul-27 06:33N 55°13' E 014°58'0 0.0
2014-Jul-27 05:33N 55°13' E 014°58'0 0.0
2014-Jul-27 04:26N 55°13' E 014°58'0 0.0
2014-Jul-27 03:33N 55°13' E 014°58'0 0.0
2014-Jul-27 02:33N 55°13' E 014°58'0 0.0
2014-Jul-27 01:33N 55°13' E 014°58'0 0.0
2014-Jul-27 00:33N 55°13' E 014°58'0 0.0
2014-Jul-26 23:33N 55°13' E 014°58'0 0.0
2014-Jul-26 22:33N 55°13' E 014°58'0 0.0
2014-Jul-26 21:33N 55°13' E 014°58'0 0.0
2014-Jul-26 20:33N 55°13' E 014°58'0 0.0
2014-Jul-26 19:33N 55°13' E 014°58'0 0.0
2014-Jul-26 18:33N 55°13' E 014°58'0 0.0
2014-Jul-26 17:33N 55°13' E 014°58'0 0.0
2014-Jul-26 16:33N 55°13' E 014°58'0 0.0
2014-Jul-26 15:33N 55°13' E 014°58'7 6.8
2014-Jul-26 14:33N 55°18' E 015°07'2 2.1
2014-Jul-26 13:33N 55°16' E 015°04'1 0.6
2014-Jul-26 12:33N 55°16' E 015°04'6 5.6
2014-Jul-26 11:33N 55°19' E 015°11'10 9.7
2014-Jul-26 10:33N 55°13' E 014°58'6 5.9
2014-Jul-26 09:33N 55°17' E 015°06'0 0.1
2014-Jul-26 08:33N 55°17' E 015°06'6 6.2
2014-Jul-26 07:33N 55°13' E 014°58'0 0.0
2014-Jul-26 06:33N 55°13' E 014°58'0 0.0
2014-Jul-26 05:33N 55°13' E 014°58'0 0.0
2014-Jul-26 04:33N 55°13' E 014°58'0 0.0
2014-Jul-26 03:33N 55°13' E 014°58'0 0.0
2014-Jul-26 02:33N 55°13' E 014°58'0 0.0
2014-Jul-26 01:33N 55°13' E 014°58'0 0.0
2014-Jul-26 00:33N 55°13' E 014°58'0 0.0
2014-Jul-25 23:33N 55°13' E 014°58'0 0.0
2014-Jul-25 22:33N 55°13' E 014°58'0 0.0
2014-Jul-25 21:33N 55°13' E 014°58'0 0.0
2014-Jul-25 20:33N 55°13' E 014°58'0 0.0
2014-Jul-25 19:33N 55°13' E 014°58'0 0.0
2014-Jul-25 18:33N 55°13' E 014°58'0 0.0
2014-Jul-25 17:33N 55°13' E 014°58'0 0.0
2014-Jul-25 16:33N 55°13' E 014°58'0 0.0
2014-Jul-25 15:33N 55°13' E 014°58'7 7.1
2014-Jul-25 14:33N 55°18' E 015°07'3 3.0
2014-Jul-25 13:33N 55°16' E 015°03'0 0.2
2014-Jul-25 12:33N 55°16' E 015°03'6 5.6
2014-Jul-25 11:33N 55°19' E 015°11'10 9.8
2014-Jul-25 10:33N 55°13' E 014°58'6 6.5
2014-Jul-25 09:33N 55°17' E 015°07'1 0.6
2014-Jul-25 08:33N 55°17' E 015°06'6 5.3
2014-Jul-25 07:26N 55°13' E 014°58'0 0.0
2014-Jul-25 06:33N 55°13' E 014°58'0 0.0
2014-Jul-25 05:32N 55°13' E 014°58'0 0.0
2014-Jul-25 04:33N 55°13' E 014°58'0 0.0
2014-Jul-25 03:33N 55°13' E 014°58'0 0.0
2014-Jul-25 02:33N 55°13' E 014°58'0 0.0
2014-Jul-25 01:33N 55°13' E 014°58'0 0.0
2014-Jul-25 00:33N 55°13' E 014°58'0 0.0
2014-Jul-24 23:33N 55°13' E 014°58'0 0.0
2014-Jul-24 22:33N 55°13' E 014°58'0 0.0
2014-Jul-24 21:33N 55°13' E 014°58'0 0.0
2014-Jul-24 20:33N 55°13' E 014°58'0 0.0
2014-Jul-24 19:33N 55°13' E 014°58'0 0.0
2014-Jul-24 18:33N 55°13' E 014°58'10 9.9
2014-Jul-24 17:33N 55°19' E 015°11'6 5.7
2014-Jul-24 16:33N 55°16' E 015°04'4 4.1
2014-Jul-24 15:33N 55°13' E 014°58'7 7.1
2014-Jul-24 14:33N 55°18' E 015°07'3 3.1
2014-Jul-24 13:33N 55°16' E 015°03'0 0.3
2014-Jul-24 12:33N 55°16' E 015°04'6 5.5
2014-Jul-24 11:33N 55°19' E 015°11'10 9.8
2014-Jul-24 10:33N 55°13' E 014°58'6 6.2
2014-Jul-24 09:33N 55°17' E 015°06'0 0.3
2014-Jul-24 08:33N 55°17' E 015°06'6 5.9
2014-Jul-24 07:33N 55°13' E 014°58'1 0.1
2014-Jul-23 18:33N 55°13' E 014°57'1010.1
2014-Jul-23 17:33N 55°19' E 015°11'5 4.6
2014-Jul-23 16:33N 55°16' E 015°05'5 5.2
2014-Jul-23 15:32N 55°13' E 014°58'7 7.1
2014-Jul-23 14:33N 55°17' E 015°07'2 2.5
2014-Jul-23 13:33N 55°16' E 015°04'1 0.6
2014-Jul-23 12:34N 55°15' E 015°04'6 5.7
2014-Jul-23 11:34N 55°19' E 015°11'10 9.7
2014-Jul-23 10:34N 55°13' E 014°58'6 5.9
2014-Jul-23 09:33N 55°17' E 015°06'0 0.5
2014-Jul-23 08:34N 55°17' E 015°05'6 5.7
2014-Jul-23 07:34N 55°13' E 014°58'0 0.0
2014-Jul-22 18:34N 55°13' E 014°57'10 8.7
2014-Jul-22 17:25N 55°19' E 015°11'5 5.6
2014-Jul-22 16:34N 55°17' E 015°04'5 4.9
2014-Jul-22 15:31N 55°13' E 014°58'7 7.2
2014-Jul-22 14:34N 55°17' E 015°07'2 2.4
2014-Jul-22 13:33N 55°16' E 015°04'1 0.6
2014-Jul-22 12:33N 55°15' E 015°03'6 6.0
2014-Jul-22 11:33N 55°19' E 015°11'10 9.9
2014-Jul-22 10:34N 55°13' E 014°58'6 6.1
2014-Jul-22 09:34N 55°17' E 015°06'0 0.4
2014-Jul-22 08:33N 55°17' E 015°05'6 5.8
2014-Jul-22 07:34N 55°13' E 014°58'  
Track history (hours):
 
Tides and Currents Weather Stations Pressure Air Temp Water Temp Dewpoint Dewpoint Depression Visibility Wind Speed Wind Dir Waves Ship Positions

Ertholm

Last reported at 2014-Aug-01 07:28 UTC. Time now 2014-Aug-01 07:48 UTC.
Position N 55°13' E 014°58'.

Length 38 m; draft 2.3 m.

Type: Ship. MMSI: 219000751.

Date/timePositionNaut miles runAvg speedWind from/ knotsBaromVisibWave heightAir tempDewpointWater temp
2014-Aug-01 07:28N 55°13' E 014°58'0 0.0
2014-Aug-01 06:33N 55°13' E 014°58'0 0.0
2014-Aug-01 05:33N 55°13' E 014°58'0 0.0
2014-Aug-01 04:32N 55°13' E 014°58'0 0.0
2014-Aug-01 03:33N 55°13' E 014°58'0 0.0
2014-Aug-01 02:33N 55°13' E 014°58'0 0.0
2014-Aug-01 01:33N 55°13' E 014°58'0 0.0
2014-Aug-01 00:33N 55°13' E 014°58'0 0.0
2014-Jul-31 23:33N 55°13' E 014°58'0 0.0
2014-Jul-31 22:33N 55°13' E 014°58'0 0.0
2014-Jul-31 21:33N 55°13' E 014°58'0 0.0
2014-Jul-31 20:33N 55°13' E 014°58'0 0.0
2014-Jul-31 19:33N 55°13' E 014°58'0 0.0
2014-Jul-31 18:33N 55°13' E 014°58'10 9.9
2014-Jul-31 17:33N 55°19' E 015°11'4 4.5
2014-Jul-31 16:33N 55°16' E 015°05'5 5.3
2014-Jul-31 15:33N 55°13' E 014°58'7 7.2
2014-Jul-31 14:33N 55°18' E 015°08'3 2.7
2014-Jul-31 13:33N 55°16' E 015°04'0 0.4
2014-Jul-31 12:33N 55°16' E 015°04'6 5.6
2014-Jul-31 11:33N 55°19' E 015°11'10 9.7
2014-Jul-31 10:33N 55°13' E 014°58'7 7.3
2014-Jul-31 09:33N 55°18' E 015°08'2 1.6
2014-Jul-31 08:33N 55°17' E 015°06'6 5.9
2014-Jul-31 07:33N 55°13' E 014°58'0 0.0
2014-Jul-31 06:33N 55°13' E 014°58'0 0.0
2014-Jul-31 05:33N 55°13' E 014°58'0 0.0
2014-Jul-31 04:33N 55°13' E 014°58'0 0.0
2014-Jul-31 03:33N 55°13' E 014°58'0 0.0
2014-Jul-31 02:33N 55°13' E 014°58'0 0.0
2014-Jul-31 01:33N 55°13' E 014°58'0 0.0
2014-Jul-31 00:33N 55°13' E 014°58'0 0.0
2014-Jul-30 23:33N 55°13' E 014°58'0 0.0
2014-Jul-30 22:33N 55°13' E 014°58'0 0.0
2014-Jul-30 21:33N 55°13' E 014°58'0 0.0
2014-Jul-30 20:33N 55°13' E 014°58'0 0.0
2014-Jul-30 19:33N 55°13' E 014°58'0 0.0
2014-Jul-30 18:33N 55°13' E 014°58'10 9.9
2014-Jul-30 17:34N 55°19' E 015°11'5 5.1
2014-Jul-30 16:33N 55°16' E 015°05'5 4.7
2014-Jul-30 15:33N 55°13' E 014°58'8 7.2
2014-Jul-30 14:28N 55°18' E 015°09'2 2.0
2014-Jul-30 13:33N 55°17' E 015°06'2 1.9
2014-Jul-30 12:33N 55°16' E 015°03'6 5.8
2014-Jul-30 11:33N 55°19' E 015°11'9 9.4
2014-Jul-30 10:33N 55°13' E 014°59'6 5.9
2014-Jul-30 09:33N 55°17' E 015°06'1 0.6
2014-Jul-30 08:33N 55°17' E 015°05'6 5.8
2014-Jul-30 07:33N 55°13' E 014°58'0 0.0
2014-Jul-30 06:33N 55°13' E 014°58'0 0.0
2014-Jul-30 05:33N 55°13' E 014°58'0 0.0
2014-Jul-30 04:33N 55°13' E 014°58'0 0.0
2014-Jul-30 03:33N 55°13' E 014°58'0 0.0
2014-Jul-30 02:33N 55°13' E 014°58'0 0.0
2014-Jul-30 01:33N 55°13' E 014°58'0 0.0
2014-Jul-30 00:08N 55°13' E 014°58'0 0.0
2014-Jul-29 23:33N 55°13' E 014°58'0 0.0
2014-Jul-29 22:33N 55°13' E 014°58'0 0.0
2014-Jul-29 21:33N 55°13' E 014°58'0 0.0
2014-Jul-29 20:33N 55°13' E 014°58'0 0.0
2014-Jul-29 19:33N 55°13' E 014°58'0 0.0
2014-Jul-29 18:33N 55°13' E 014°58'10 9.9
2014-Jul-29 17:33N 55°19' E 015°11'5 5.5
2014-Jul-29 16:33N 55°16' E 015°04'4 4.4
2014-Jul-29 15:33N 55°13' E 014°58'7 7.3
2014-Jul-29 14:33N 55°18' E 015°08'3 2.5
2014-Jul-29 13:33N 55°16' E 015°04'1 1.0
2014-Jul-29 12:33N 55°16' E 015°03'6 6.0
2014-Jul-29 11:33N 55°19' E 015°11'9 9.3
2014-Jul-29 10:33N 55°13' E 014°59'6 6.0
2014-Jul-29 09:33N 55°17' E 015°07'1 0.6
2014-Jul-29 08:33N 55°17' E 015°06'6 5.8
2014-Jul-29 07:33N 55°13' E 014°58'0 0.0
2014-Jul-29 06:33N 55°13' E 014°58'0 0.0
2014-Jul-29 05:33N 55°13' E 014°58'0 0.0
2014-Jul-29 04:33N 55°13' E 014°58'0 0.0
2014-Jul-29 03:33N 55°13' E 014°58'0 0.0
2014-Jul-29 02:33N 55°13' E 014°58'0 0.0
2014-Jul-29 01:33N 55°13' E 014°58'0 0.0
2014-Jul-29 00:33N 55°13' E 014°58'0 0.0
2014-Jul-28 23:33N 55°13' E 014°58'0 0.0
2014-Jul-28 22:33N 55°13' E 014°58'0 0.0
2014-Jul-28 21:33N 55°13' E 014°58'0 0.0
2014-Jul-28 20:33N 55°13' E 014°58'0 0.0
2014-Jul-28 19:33N 55°13' E 014°58'0 0.0
2014-Jul-28 18:33N 55°13' E 014°58'0 0.0
2014-Jul-28 17:33N 55°13' E 014°58'0 0.0
2014-Jul-28 16:33N 55°13' E 014°58'0 0.0
2014-Jul-28 15:33N 55°13' E 014°58'7 7.4
2014-Jul-28 14:33N 55°18' E 015°08'3 2.8
2014-Jul-28 13:33N 55°16' E 015°04'1 0.8
2014-Jul-28 12:33N 55°15' E 015°03'6 5.9
2014-Jul-28 11:33N 55°19' E 015°11'10 9.6
2014-Jul-28 10:34N 55°13' E 014°59'7 6.8
2014-Jul-28 09:33N 55°18' E 015°07'1 1.3
2014-Jul-28 08:33N 55°17' E 015°06'6 5.8
2014-Jul-28 07:33N 55°13' E 014°58'0 0.0
2014-Jul-28 06:33N 55°13' E 014°58'0 0.0
2014-Jul-28 05:33N 55°13' E 014°58'0 0.0
2014-Jul-28 04:33N 55°13' E 014°58'0 0.0
2014-Jul-28 03:33N 55°13' E 014°58'0 0.0
2014-Jul-28 02:15N 55°13' E 014°58'0 0.0
2014-Jul-28 01:33N 55°13' E 014°58'0 0.0
2014-Jul-28 00:33N 55°13' E 014°58'0 0.0
2014-Jul-27 23:33N 55°13' E 014°58'0 0.0
2014-Jul-27 22:33N 55°13' E 014°58'0 0.0
2014-Jul-27 21:33N 55°13' E 014°58'0 0.0
2014-Jul-27 20:33N 55°13' E 014°58'0 0.0
2014-Jul-27 19:33N 55°13' E 014°58'0 0.0
2014-Jul-27 18:33N 55°13' E 014°58'0 0.0
2014-Jul-27 17:32N 55°13' E 014°58'0 0.0
2014-Jul-27 16:33N 55°13' E 014°58'0 0.0
2014-Jul-27 15:33N 55°13' E 014°58'7 6.8
2014-Jul-27 14:33N 55°17' E 015°07'2 2.4
2014-Jul-27 13:33N 55°16' E 015°04'1 0.6
2014-Jul-27 12:33N 55°15' E 015°03'6 6.2
2014-Jul-27 11:33N 55°19' E 015°11'10 9.7
2014-Jul-27 10:33N 55°13' E 014°58'8 7.4
2014-Jul-27 09:31N 55°18' E 015°08'2 2.1
2014-Jul-27 08:33N 55°17' E 015°05'6 5.6
2014-Jul-27 07:33N 55°13' E 014°58'0 0.0
2014-Jul-27 06:33N 55°13' E 014°58'0 0.0
2014-Jul-27 05:33N 55°13' E 014°58'0 0.0
2014-Jul-27 04:26N 55°13' E 014°58'0 0.0
2014-Jul-27 03:33N 55°13' E 014°58'0 0.0
2014-Jul-27 02:33N 55°13' E 014°58'0 0.0
2014-Jul-27 01:33N 55°13' E 014°58'0 0.0
2014-Jul-27 00:33N 55°13' E 014°58'0 0.0
2014-Jul-26 23:33N 55°13' E 014°58'0 0.0
2014-Jul-26 22:33N 55°13' E 014°58'0 0.0
2014-Jul-26 21:33N 55°13' E 014°58'0 0.0
2014-Jul-26 20:33N 55°13' E 014°58'0 0.0
2014-Jul-26 19:33N 55°13' E 014°58'0 0.0
2014-Jul-26 18:33N 55°13' E 014°58'0 0.0
2014-Jul-26 17:33N 55°13' E 014°58'0 0.0
2014-Jul-26 16:33N 55°13' E 014°58'0 0.0
2014-Jul-26 15:33N 55°13' E 014°58'7 6.8
2014-Jul-26 14:33N 55°18' E 015°07'2 2.1
2014-Jul-26 13:33N 55°16' E 015°04'1 0.6
2014-Jul-26 12:33N 55°16' E 015°04'6 5.6
2014-Jul-26 11:33N 55°19' E 015°11'10 9.7
2014-Jul-26 10:33N 55°13' E 014°58'6 5.9
2014-Jul-26 09:33N 55°17' E 015°06'0 0.1
2014-Jul-26 08:33N 55°17' E 015°06'6 6.2
2014-Jul-26 07:33N 55°13' E 014°58'0 0.0
2014-Jul-26 06:33N 55°13' E 014°58'0 0.0
2014-Jul-26 05:33N 55°13' E 014°58'0 0.0
2014-Jul-26 04:33N 55°13' E 014°58'0 0.0
2014-Jul-26 03:33N 55°13' E 014°58'0 0.0
2014-Jul-26 02:33N 55°13' E 014°58'0 0.0
2014-Jul-26 01:33N 55°13' E 014°58'0 0.0
2014-Jul-26 00:33N 55°13' E 014°58'0 0.0
2014-Jul-25 23:33N 55°13' E 014°58'0 0.0
2014-Jul-25 22:33N 55°13' E 014°58'0 0.0
2014-Jul-25 21:33N 55°13' E 014°58'0 0.0
2014-Jul-25 20:33N 55°13' E 014°58'0 0.0
2014-Jul-25 19:33N 55°13' E 014°58'0 0.0
2014-Jul-25 18:33N 55°13' E 014°58'0 0.0
2014-Jul-25 17:33N 55°13' E 014°58'0 0.0
2014-Jul-25 16:33N 55°13' E 014°58'0 0.0
2014-Jul-25 15:33N 55°13' E 014°58'7 7.1
2014-Jul-25 14:33N 55°18' E 015°07'3 3.0
2014-Jul-25 13:33N 55°16' E 015°03'0 0.2
2014-Jul-25 12:33N 55°16' E 015°03'6 5.6
2014-Jul-25 11:33N 55°19' E 015°11'10 9.8
2014-Jul-25 10:33N 55°13' E 014°58'6 6.5
2014-Jul-25 09:33N 55°17' E 015°07'1 0.6
2014-Jul-25 08:33N 55°17' E 015°06'6 5.3
2014-Jul-25 07:26N 55°13' E 014°58'0 0.0
2014-Jul-25 06:33N 55°13' E 014°58'0 0.0
2014-Jul-25 05:32N 55°13' E 014°58'0 0.0
2014-Jul-25 04:33N 55°13' E 014°58'0 0.0
2014-Jul-25 03:33N 55°13' E 014°58'0 0.0
2014-Jul-25 02:33N 55°13' E 014°58'0 0.0
2014-Jul-25 01:33N 55°13' E 014°58'0 0.0
2014-Jul-25 00:33N 55°13' E 014°58'0 0.0
2014-Jul-24 23:33N 55°13' E 014°58'0 0.0
2014-Jul-24 22:33N 55°13' E 014°58'0 0.0
2014-Jul-24 21:33N 55°13' E 014°58'0 0.0
2014-Jul-24 20:33N 55°13' E 014°58'0 0.0
2014-Jul-24 19:33N 55°13' E 014°58'0 0.0
2014-Jul-24 18:33N 55°13' E 014°58'10 9.9
2014-Jul-24 17:33N 55°19' E 015°11'6 5.7
2014-Jul-24 16:33N 55°16' E 015°04'4 4.1
2014-Jul-24 15:33N 55°13' E 014°58'7 7.1
2014-Jul-24 14:33N 55°18' E 015°07'3 3.1
2014-Jul-24 13:33N 55°16' E 015°03'0 0.3
2014-Jul-24 12:33N 55°16' E 015°04'6 5.5
2014-Jul-24 11:33N 55°19' E 015°11'10 9.8
2014-Jul-24 10:33N 55°13' E 014°58'6 6.2
2014-Jul-24 09:33N 55°17' E 015°06'0 0.3
2014-Jul-24 08:33N 55°17' E 015°06'6 5.9
2014-Jul-24 07:33N 55°13' E 014°58'1 0.1
2014-Jul-23 18:33N 55°13' E 014°57'1010.1
2014-Jul-23 17:33N 55°19' E 015°11'5 4.6
2014-Jul-23 16:33N 55°16' E 015°05'5 5.2
2014-Jul-23 15:32N 55°13' E 014°58'7 7.1
2014-Jul-23 14:33N 55°17' E 015°07'2 2.5
2014-Jul-23 13:33N 55°16' E 015°04'1 0.6
2014-Jul-23 12:34N 55°15' E 015°04'6 5.7
2014-Jul-23 11:34N 55°19' E 015°11'10 9.7
2014-Jul-23 10:34N 55°13' E 014°58'6 5.9
2014-Jul-23 09:33N 55°17' E 015°06'0 0.5
2014-Jul-23 08:34N 55°17' E 015°05'6 5.7
2014-Jul-23 07:34N 55°13' E 014°58'0 0.0
2014-Jul-22 18:34N 55°13' E 014°57'10 8.7
2014-Jul-22 17:25N 55°19' E 015°11'5 5.6
2014-Jul-22 16:34N 55°17' E 015°04'5 4.9
2014-Jul-22 15:31N 55°13' E 014°58'7 7.2
2014-Jul-22 14:34N 55°17' E 015°07'2 2.4
2014-Jul-22 13:33N 55°16' E 015°04'1 0.6
2014-Jul-22 12:33N 55°15' E 015°03'6 6.0
2014-Jul-22 11:33N 55°19' E 015°11'10 9.9
2014-Jul-22 10:34N 55°13' E 014°58'6 6.1
2014-Jul-22 09:34N 55°17' E 015°06'0 0.4
2014-Jul-22 08:33N 55°17' E 015°05'6 5.8
2014-Jul-22 07:34N 55°13' E 014°58'  

Dump ship's entire track history